Hickory Ridge, Arkansas
Current Conditions -  °F | °C
As of 9:56 AM on Sunday 21 Dec 2014 (Local Time) from KM19 Reporting Station
Overcast Overcast  
Wind Chill: 40°   Ceiling: 4600
Heat Index: 43°   Visibility: 10mi
Dew Point: 34°   Wind: 5mph
Humidity: 71%   Direction: 130°SE
Pressure: 30.22"   Gusts: NA
Location:  35.4°N, 91°W
Report Text: KM19 211556Z AUTO 13004KT 10SM OVC046 06/01 A3022 RMK AO2 T00610011 SLP234
Loading
Personal Weather Stations






























Interactive Weather Map New forecast layout! Learn more

10-Day Weather Forecast

Advertisements
Track Severe Weather on mobile